sensor_id;sensor_type;location;lat;lon;timestamp;pressure;altitude;pressure_sealevel;temperature;humidity
9746;BME280;4912;50.836;12.958;2023-03-20T00:02:18;97850.13;;;11.63;83.36
9746;BME280;4912;50.836;12.958;2023-03-20T00:04:50;97858.00;;;11.65;83.49
9746;BME280;4912;50.836;12.958;2023-03-20T00:07:22;97845.56;;;11.60;83.33
9746;BME280;4912;50.836;12.958;2023-03-20T00:09:56;97845.56;;;11.60;83.58
9746;BME280;4912;50.836;12.958;2023-03-20T00:12:27;97850.34;;;11.60;83.62
9746;BME280;4912;50.836;12.958;2023-03-20T00:14:59;97846.78;;;11.59;83.54
9746;BME280;4912;50.836;12.958;2023-03-20T00:17:30;97854.03;;;11.57;83.00
9746;BME280;4912;50.836;12.958;2023-03-20T00:20:01;97843.72;;;11.57;83.14
9746;BME280;4912;50.836;12.958;2023-03-20T00:22:31;97849.25;;;11.57;83.67
9746;BME280;4912;50.836;12.958;2023-03-20T00:25:05;97853.00;;;11.54;83.71
9746;BME280;4912;50.836;12.958;2023-03-20T00:27:37;97848.50;;;11.57;83.60
9746;BME280;4912;50.836;12.958;2023-03-20T00:30:25;97847.38;;;11.63;83.55
9746;BME280;4912;50.836;12.958;2023-03-20T00:32:58;97845.16;;;11.67;83.08
9746;BME280;4912;50.836;12.958;2023-03-20T00:35:29;97839.34;;;11.65;83.37
9746;BME280;4912;50.836;12.958;2023-03-20T00:38:00;97838.41;;;11.68;83.71
9746;BME280;4912;50.836;12.958;2023-03-20T00:40:36;97842.50;;;11.73;83.50
9746;BME280;4912;50.836;12.958;2023-03-20T00:43:12;97842.63;;;11.78;83.02
9746;BME280;4912;50.836;12.958;2023-03-20T00:45:45;97841.13;;;11.77;83.19
9746;BME280;4912;50.836;12.958;2023-03-20T00:48:15;97845.16;;;11.76;83.45
9746;BME280;4912;50.836;12.958;2023-03-20T00:50:48;97842.38;;;11.76;83.93
9746;BME280;4912;50.836;12.958;2023-03-20T00:53:19;97847.44;;;11.78;83.60
9746;BME280;4912;50.836;12.958;2023-03-20T00:55:52;97844.00;;;11.83;83.48
9746;BME280;4912;50.836;12.958;2023-03-20T00:58:23;97843.34;;;11.88;83.41
9746;BME280;4912;50.836;12.958;2023-03-20T01:00:54;97847.66;;;11.89;83.62
9746;BME280;4912;50.836;12.958;2023-03-20T01:03:25;97843.75;;;11.96;83.12
9746;BME280;4912;50.836;12.958;2023-03-20T01:05:56;97842.31;;;12.00;83.23
9746;BME280;4912;50.836;12.958;2023-03-20T01:08:26;97840.31;;;12.01;83.24
9746;BME280;4912;50.836;12.958;2023-03-20T01:11:00;97847.09;;;12.00;83.49
9746;BME280;4912;50.836;12.958;2023-03-20T01:13:31;97843.84;;;12.01;83.44
9746;BME280;4912;50.836;12.958;2023-03-20T01:16:02;97841.53;;;12.00;83.55
9746;BME280;4912;50.836;12.958;2023-03-20T01:18:32;97835.03;;;12.03;83.31
9746;BME280;4912;50.836;12.958;2023-03-20T01:21:03;97832.84;;;12.07;83.51
9746;BME280;4912;50.836;12.958;2023-03-20T01:23:34;97843.44;;;12.08;83.37
9746;BME280;4912;50.836;12.958;2023-03-20T01:26:17;97849.00;;;12.08;83.44
9746;BME280;4912;50.836;12.958;2023-03-20T01:28:52;97848.22;;;12.08;83.97
9746;BME280;4912;50.836;12.958;2023-03-20T01:31:23;97840.56;;;12.03;84.05
9746;BME280;4912;50.836;12.958;2023-03-20T01:33:53;97844.03;;;11.98;84.56
9746;BME280;4912;50.836;12.958;2023-03-20T01:36:23;97836.88;;;12.06;84.32
9746;BME280;4912;50.836;12.958;2023-03-20T01:38:56;97845.56;;;11.99;84.60
9746;BME280;4912;50.836;12.958;2023-03-20T01:41:31;97847.66;;;12.04;84.55
9746;BME280;4912;50.836;12.958;2023-03-20T01:44:16;97834.47;;;11.99;84.71
9746;BME280;4912;50.836;12.958;2023-03-20T01:46:54;97838.47;;;11.83;85.95
9746;BME280;4912;50.836;12.958;2023-03-20T01:52:51;97834.56;;;11.89;85.75
9746;BME280;4912;50.836;12.958;2023-03-20T01:55:24;97841.03;;;11.86;85.91
9746;BME280;4912;50.836;12.958;2023-03-20T01:58:08;97838.28;;;11.86;86.18
9746;BME280;4912;50.836;12.958;2023-03-20T02:00:46;97845.91;;;11.92;85.79
9746;BME280;4912;50.836;12.958;2023-03-20T02:03:19;97840.09;;;11.89;86.12
9746;BME280;4912;50.836;12.958;2023-03-20T02:06:15;97843.91;;;11.92;85.87
9746;BME280;4912;50.836;12.958;2023-03-20T02:09:14;97843.81;;;11.86;86.15
9746;BME280;4912;50.836;12.958;2023-03-20T02:11:46;97844.00;;;11.83;86.72
9746;BME280;4912;50.836;12.958;2023-03-20T02:14:22;97847.81;;;11.85;86.74
9746;BME280;4912;50.836;12.958;2023-03-20T02:16:59;97843.50;;;11.84;86.56
9746;BME280;4912;50.836;12.958;2023-03-20T02:19:46;97845.34;;;11.87;86.34
9746;BME280;4912;50.836;12.958;2023-03-20T02:26:33;97845.34;;;11.87;86.20
9746;BME280;4912;50.836;12.958;2023-03-20T02:33:10;97841.50;;;11.85;85.97
9746;BME280;4912;50.836;12.958;2023-03-20T02:39:51;97843.63;;;11.90;85.48
9746;BME280;4912;50.836;12.958;2023-03-20T02:42:33;97838.47;;;11.98;84.74
9746;BME280;4912;50.836;12.958;2023-03-20T02:45:14;97841.66;;;12.05;84.08
9746;BME280;4912;50.836;12.958;2023-03-20T02:47:51;97833.13;;;12.09;83.72
9746;BME280;4912;50.836;12.958;2023-03-20T02:50:43;97838.09;;;12.05;83.82
9746;BME280;4912;50.836;12.958;2023-03-20T02:53:27;97843.66;;;12.05;83.93
9746;BME280;4912;50.836;12.958;2023-03-20T02:56:11;97842.78;;;11.99;84.10
9746;BME280;4912;50.836;12.958;2023-03-20T02:58:49;97850.91;;;12.02;83.89
9746;BME280;4912;50.836;12.958;2023-03-20T03:01:27;97843.94;;;12.07;83.62
9746;BME280;4912;50.836;12.958;2023-03-20T03:04:02;97839.34;;;12.04;83.23
9746;BME280;4912;50.836;12.958;2023-03-20T03:06:37;97848.44;;;12.04;83.51
9746;BME280;4912;50.836;12.958;2023-03-20T03:09:13;97844.13;;;12.03;83.16
9746;BME280;4912;50.836;12.958;2023-03-20T03:11:52;97842.59;;;12.17;82.61
9746;BME280;4912;50.836;12.958;2023-03-20T03:14:31;97838.59;;;12.18;82.41
9746;BME280;4912;50.836;12.958;2023-03-20T03:17:12;97838.69;;;12.23;81.87
9746;BME280;4912;50.836;12.958;2023-03-20T03:19:46;97837.53;;;12.15;81.63
9746;BME280;4912;50.836;12.958;2023-03-20T03:22:18;97832.75;;;12.16;81.85
9746;BME280;4912;50.836;12.958;2023-03-20T03:24:51;97836.38;;;12.22;81.27
9746;BME280;4912;50.836;12.958;2023-03-20T03:27:28;97840.13;;;12.19;81.37
9746;BME280;4912;50.836;12.958;2023-03-20T03:30:07;97843.47;;;12.23;81.28
9746;BME280;4912;50.836;12.958;2023-03-20T03:32:46;97844.91;;;12.18;81.30
9746;BME280;4912;50.836;12.958;2023-03-20T03:35:20;97841.28;;;12.12;81.59
9746;BME280;4912;50.836;12.958;2023-03-20T03:37:57;97837.25;;;12.13;81.41
9746;BME280;4912;50.836;12.958;2023-03-20T03:40:33;97838.41;;;12.07;81.83
9746;BME280;4912;50.836;12.958;2023-03-20T03:43:15;97840.50;;;12.12;81.56
9746;BME280;4912;50.836;12.958;2023-03-20T03:45:50;97841.16;;;12.21;80.93
9746;BME280;4912;50.836;12.958;2023-03-20T03:48:29;97839.91;;;12.08;81.27
9746;BME280;4912;50.836;12.958;2023-03-20T03:51:06;97847.28;;;12.11;81.13
9746;BME280;4912;50.836;12.958;2023-03-20T03:53:51;97848.72;;;12.06;81.07
9746;BME280;4912;50.836;12.958;2023-03-20T03:56:26;97849.75;;;12.09;80.92
9746;BME280;4912;50.836;12.958;2023-03-20T03:59:05;97848.16;;;12.17;80.48
9746;BME280;4912;50.836;12.958;2023-03-20T04:01:41;97840.41;;;12.21;80.00
9746;BME280;4912;50.836;12.958;2023-03-20T04:04:13;97844.41;;;12.20;79.77
9746;BME280;4912;50.836;12.958;2023-03-20T04:06:46;97845.19;;;12.20;79.67
9746;BME280;4912;50.836;12.958;2023-03-20T04:09:17;97848.81;;;12.12;80.53
9746;BME280;4912;50.836;12.958;2023-03-20T04:11:49;97851.50;;;12.06;80.74
9746;BME280;4912;50.836;12.958;2023-03-20T04:14:23;97843.75;;;11.96;80.82
9746;BME280;4912;50.836;12.958;2023-03-20T04:16:54;97842.88;;;11.89;80.86
9746;BME280;4912;50.836;12.958;2023-03-20T04:19:25;97843.25;;;11.82;80.98
9746;BME280;4912;50.836;12.958;2023-03-20T04:21:55;97851.78;;;11.70;81.56
9746;BME280;4912;50.836;12.958;2023-03-20T04:24:25;97855.09;;;11.59;82.37
9746;BME280;4912;50.836;12.958;2023-03-20T04:26:56;97854.81;;;11.57;82.88
9746;BME280;4912;50.836;12.958;2023-03-20T04:29:33;97849.25;;;11.57;82.23
9746;BME280;4912;50.836;12.958;2023-03-20T04:32:23;97854.50;;;11.55;82.03
9746;BME280;4912;50.836;12.958;2023-03-20T04:35:12;97854.69;;;11.52;82.04
9746;BME280;4912;50.836;12.958;2023-03-20T04:37:50;97855.50;;;11.43;82.64
9746;BME280;4912;50.836;12.958;2023-03-20T04:40:21;97870.00;;;11.38;82.95
9746;BME280;4912;50.836;12.958;2023-03-20T04:42:52;97867.63;;;11.31;83.40
9746;BME280;4912;50.836;12.958;2023-03-20T04:45:27;97865.13;;;11.33;83.08
9746;BME280;4912;50.836;12.958;2023-03-20T04:48:01;97877.75;;;11.34;83.08
9746;BME280;4912;50.836;12.958;2023-03-20T04:50:32;97871.75;;;11.35;82.85
9746;BME280;4912;50.836;12.958;2023-03-20T04:53:02;97871.75;;;11.35;82.78
9746;BME280;4912;50.836;12.958;2023-03-20T04:55:33;97868.63;;;11.42;82.28
9746;BME280;4912;50.836;12.958;2023-03-20T04:58:04;97879.88;;;11.39;82.61
9746;BME280;4912;50.836;12.958;2023-03-20T05:00:39;97874.31;;;11.39;82.55
9746;BME280;4912;50.836;12.958;2023-03-20T05:03:10;97884.63;;;11.38;82.39
9746;BME280;4912;50.836;12.958;2023-03-20T05:05:42;97884.25;;;11.31;82.93
9746;BME280;4912;50.836;12.958;2023-03-20T05:08:13;97896.25;;;11.28;83.26
9746;BME280;4912;50.836;12.958;2023-03-20T05:10:44;97891.41;;;11.37;82.53
9746;BME280;4912;50.836;12.958;2023-03-20T05:13:35;97896.13;;;11.46;81.92
9746;BME280;4912;50.836;12.958;2023-03-20T05:16:30;97896.44;;;11.48;81.77
9746;BME280;4912;50.836;12.958;2023-03-20T05:19:19;97906.25;;;11.49;81.82
9746;BME280;4912;50.836;12.958;2023-03-20T05:22:09;97906.88;;;11.53;81.47
9746;BME280;4912;50.836;12.958;2023-03-20T05:24:52;97909.16;;;11.55;81.67
9746;BME280;4912;50.836;12.958;2023-03-20T05:27:42;97910.41;;;11.54;81.24
9746;BME280;4912;50.836;12.958;2023-03-20T05:30:32;97914.41;;;11.53;80.93
9746;BME280;4912;50.836;12.958;2023-03-20T05:33:23;97916.94;;;11.41;81.21
9746;BME280;4912;50.836;12.958;2023-03-20T05:36:17;97918.88;;;11.26;82.27
9746;BME280;4912;50.836;12.958;2023-03-20T05:38:47;97921.38;;;11.15;83.04
9746;BME280;4912;50.836;12.958;2023-03-20T05:41:38;97918.19;;;11.07;83.70
9746;BME280;4912;50.836;12.958;2023-03-20T05:44:30;97927.56;;;11.10;83.81
9746;BME280;4912;50.836;12.958;2023-03-20T05:47:19;97925.09;;;11.12;83.89
9746;BME280;4912;50.836;12.958;2023-03-20T05:50:05;97924.28;;;11.21;83.40
9746;BME280;4912;50.836;12.958;2023-03-20T05:52:51;97930.13;;;11.23;83.18
9746;BME280;4912;50.836;12.958;2023-03-20T05:55:32;97932.13;;;11.22;83.07
9746;BME280;4912;50.836;12.958;2023-03-20T05:58:15;97930.78;;;11.18;83.27
9746;BME280;4912;50.836;12.958;2023-03-20T06:01:06;97937.28;;;11.05;83.95
9746;BME280;4912;50.836;12.958;2023-03-20T06:03:55;97931.00;;;10.96;85.17
9746;BME280;4912;50.836;12.958;2023-03-20T06:07:06;97939.28;;;11.05;84.95
9746;BME280;4912;50.836;12.958;2023-03-20T06:09:40;97943.72;;;11.12;84.35
9746;BME280;4912;50.836;12.958;2023-03-20T06:12:12;97944.28;;;11.25;83.86
9746;BME280;4912;50.836;12.958;2023-03-20T06:14:43;97943.78;;;11.35;83.19
9746;BME280;4912;50.836;12.958;2023-03-20T06:17:14;97949.44;;;11.41;82.86
9746;BME280;4912;50.836;12.958;2023-03-20T06:19:50;97945.13;;;11.40;82.72
9746;BME280;4912;50.836;12.958;2023-03-20T06:22:24;97948.59;;;11.49;82.29
9746;BME280;4912;50.836;12.958;2023-03-20T06:24:54;97944.06;;;11.61;81.99
9746;BME280;4912;50.836;12.958;2023-03-20T06:27:33;97947.44;;;11.65;81.35
9746;BME280;4912;50.836;12.958;2023-03-20T06:30:05;97950.88;;;11.60;81.64
9746;BME280;4912;50.836;12.958;2023-03-20T06:32:38;97947.59;;;11.62;82.03
9746;BME280;4912;50.836;12.958;2023-03-20T06:35:11;97947.13;;;11.63;82.04
9746;BME280;4912;50.836;12.958;2023-03-20T06:37:48;97948.03;;;11.69;82.24
9746;BME280;4912;50.836;12.958;2023-03-20T06:40:22;97948.94;;;11.75;82.01
9746;BME280;4912;50.836;12.958;2023-03-20T06:42:54;97950.59;;;11.82;82.28
9746;BME280;4912;50.836;12.958;2023-03-20T06:45:34;97956.13;;;12.06;81.21
9746;BME280;4912;50.836;12.958;2023-03-20T06:48:14;97951.72;;;12.14;82.16
9746;BME280;4912;50.836;12.958;2023-03-20T06:50:48;97936.34;;;12.13;83.67
9746;BME280;4912;50.836;12.958;2023-03-20T06:53:25;97946.91;;;12.00;84.19
9746;BME280;4912;50.836;12.958;2023-03-20T06:56:21;97946.16;;;11.75;85.99
9746;BME280;4912;50.836;12.958;2023-03-20T06:58:52;97945.78;;;11.59;87.21
9746;BME280;4912;50.836;12.958;2023-03-20T07:01:22;97947.81;;;11.49;89.19
9746;BME280;4912;50.836;12.958;2023-03-20T07:03:53;97940.47;;;11.46;89.26
9746;BME280;4912;50.836;12.958;2023-03-20T07:06:27;97937.34;;;11.53;89.79
9746;BME280;4912;50.836;12.958;2023-03-20T07:09:00;97941.59;;;11.63;89.74
9746;BME280;4912;50.836;12.958;2023-03-20T07:11:31;97944.16;;;11.76;89.53
9746;BME280;4912;50.836;12.958;2023-03-20T07:14:02;97944.06;;;12.09;87.59
9746;BME280;4912;50.836;12.958;2023-03-20T07:16:49;97939.91;;;12.28;86.59
9746;BME280;4912;50.836;12.958;2023-03-20T07:19:21;97939.06;;;12.37;86.12
9746;BME280;4912;50.836;12.958;2023-03-20T07:21:59;97945.09;;;12.64;84.86
9746;BME280;4912;50.836;12.958;2023-03-20T07:24:40;97948.38;;;12.78;84.23
9746;BME280;4912;50.836;12.958;2023-03-20T07:27:13;97947.69;;;12.83;83.91
9746;BME280;4912;50.836;12.958;2023-03-20T07:29:44;97952.28;;;13.00;82.73
9746;BME280;4912;50.836;12.958;2023-03-20T07:32:17;97949.50;;;12.86;83.55
9746;BME280;4912;50.836;12.958;2023-03-20T07:34:49;97959.47;;;12.78;84.07
9746;BME280;4912;50.836;12.958;2023-03-20T07:37:20;97960.50;;;12.80;83.81
9746;BME280;4912;50.836;12.958;2023-03-20T07:40:02;97949.78;;;12.88;83.94
9746;BME280;4912;50.836;12.958;2023-03-20T07:42:44;97955.41;;;13.08;82.66
9746;BME280;4912;50.836;12.958;2023-03-20T07:45:34;97963.38;;;13.00;83.23
9746;BME280;4912;50.836;12.958;2023-03-20T07:48:05;97964.63;;;12.85;83.42
9746;BME280;4912;50.836;12.958;2023-03-20T07:50:36;97966.63;;;12.84;83.71
9746;BME280;4912;50.836;12.958;2023-03-20T07:53:06;97964.06;;;12.81;84.65
9746;BME280;4912;50.836;12.958;2023-03-20T07:55:39;97966.63;;;12.84;84.53
9746;BME280;4912;50.836;12.958;2023-03-20T07:58:10;97972.59;;;12.77;84.61
9746;BME280;4912;50.836;12.958;2023-03-20T08:00:40;97970.00;;;12.59;85.08
9746;BME280;4912;50.836;12.958;2023-03-20T08:03:10;97968.66;;;12.54;85.90
9746;BME280;4912;50.836;12.958;2023-03-20T08:05:42;97971.69;;;12.56;85.49
9746;BME280;4912;50.836;12.958;2023-03-20T08:08:14;97972.75;;;12.59;85.64
9746;BME280;4912;50.836;12.958;2023-03-20T08:10:47;97967.81;;;12.78;85.15
9746;BME280;4912;50.836;12.958;2023-03-20T08:13:17;97970.84;;;12.94;83.64
9746;BME280;4912;50.836;12.958;2023-03-20T08:15:48;97972.47;;;13.16;83.31
9746;BME280;4912;50.836;12.958;2023-03-20T08:18:18;97973.53;;;13.18;81.89
9746;BME280;4912;50.836;12.958;2023-03-20T08:20:49;97965.69;;;13.17;81.37
9746;BME280;4912;50.836;12.958;2023-03-20T08:23:20;97962.47;;;13.38;81.42
9746;BME280;4912;50.836;12.958;2023-03-20T08:25:53;97965.84;;;13.63;79.89
9746;BME280;4912;50.836;12.958;2023-03-20T08:28:23;97968.94;;;13.65;79.15
9746;BME280;4912;50.836;12.958;2023-03-20T08:31:12;97965.44;;;13.70;78.92
9746;BME280;4912;50.836;12.958;2023-03-20T08:33:44;97969.28;;;13.72;78.69
9746;BME280;4912;50.836;12.958;2023-03-20T08:36:15;97961.03;;;13.78;78.06
9746;BME280;4912;50.836;12.958;2023-03-20T08:38:47;97955.84;;;13.91;77.89
9746;BME280;4912;50.836;12.958;2023-03-20T08:41:21;97957.03;;;14.05;77.18
9746;BME280;4912;50.836;12.958;2023-03-20T08:43:51;97965.41;;;14.25;75.50
9746;BME280;4912;50.836;12.958;2023-03-20T08:46:22;97963.66;;;14.07;75.80
9746;BME280;4912;50.836;12.958;2023-03-20T08:48:52;97964.91;;;14.06;76.40
9746;BME280;4912;50.836;12.958;2023-03-20T08:51:24;97971.19;;;14.01;76.61
9746;BME280;4912;50.836;12.958;2023-03-20T08:53:55;97978.88;;;13.91;77.20
9746;BME280;4912;50.836;12.958;2023-03-20T08:56:28;97978.94;;;13.97;76.77
9746;BME280;4912;50.836;12.958;2023-03-20T08:58:58;97970.59;;;14.17;76.10
9746;BME280;4912;50.836;12.958;2023-03-20T09:01:28;97979.25;;;14.19;75.32
9746;BME280;4912;50.836;12.958;2023-03-20T09:04:15;97978.41;;;14.13;75.58
9746;BME280;4912;50.836;12.958;2023-03-20T09:06:46;97978.13;;;14.11;75.81
9746;BME280;4912;50.836;12.958;2023-03-20T09:09:17;97976.31;;;14.08;76.45
9746;BME280;4912;50.836;12.958;2023-03-20T09:11:56;97974.50;;;14.05;76.19
9746;BME280;4912;50.836;12.958;2023-03-20T09:14:27;97982.28;;;13.81;76.95
9746;BME280;4912;50.836;12.958;2023-03-20T09:16:58;97980.84;;;13.50;78.62
9746;BME280;4912;50.836;12.958;2023-03-20T09:19:28;97980.59;;;13.48;79.20
9746;BME280;4912;50.836;12.958;2023-03-20T09:21:58;97987.41;;;13.68;79.05
9746;BME280;4912;50.836;12.958;2023-03-20T09:24:29;97977.44;;;14.62;74.98
9746;BME280;4912;50.836;12.958;2023-03-20T09:27:02;97971.31;;;15.47;70.14
9746;BME280;4912;50.836;12.958;2023-03-20T09:29:33;97984.47;;;15.72;69.14
9746;BME280;4912;50.836;12.958;2023-03-20T09:32:04;97978.88;;;15.72;68.52
9746;BME280;4912;50.836;12.958;2023-03-20T09:34:35;97978.84;;;15.67;68.04
9746;BME280;4912;50.836;12.958;2023-03-20T09:37:05;97974.94;;;15.53;68.06
9746;BME280;4912;50.836;12.958;2023-03-20T09:39:36;97980.88;;;15.66;68.27
9746;BME280;4912;50.836;12.958;2023-03-20T09:42:19;97985.84;;;15.99;67.11
9746;BME280;4912;50.836;12.958;2023-03-20T09:45:00;97990.31;;;15.80;67.43
9746;BME280;4912;50.836;12.958;2023-03-20T09:47:39;97980.13;;;15.71;67.75
9746;BME280;4912;50.836;12.958;2023-03-20T09:50:23;97986.72;;;15.74;67.22
9746;BME280;4912;50.836;12.958;2023-03-20T09:53:00;97991.28;;;15.71;67.73
9746;BME280;4912;50.836;12.958;2023-03-20T09:55:35;97987.22;;;15.67;67.16
9746;BME280;4912;50.836;12.958;2023-03-20T09:58:17;97988.78;;;15.79;67.18
9746;BME280;4912;50.836;12.958;2023-03-20T10:00:50;97987.25;;;15.72;67.34
9746;BME280;4912;50.836;12.958;2023-03-20T10:03:27;97988.34;;;15.91;66.13
9746;BME280;4912;50.836;12.958;2023-03-20T10:06:04;97984.97;;;15.76;66.41
9746;BME280;4912;50.836;12.958;2023-03-20T10:08:38;97981.66;;;15.72;66.70
9746;BME280;4912;50.836;12.958;2023-03-20T10:11:28;97988.75;;;15.73;66.45
9746;BME280;4912;50.836;12.958;2023-03-20T10:14:15;97992.50;;;15.33;67.47
9746;BME280;4912;50.836;12.958;2023-03-20T10:17:03;97992.78;;;15.35;68.38
9746;BME280;4912;50.836;12.958;2023-03-20T10:19:42;98002.84;;;15.27;68.50
9746;BME280;4912;50.836;12.958;2023-03-20T10:22:20;97989.56;;;15.42;67.78
9746;BME280;4912;50.836;12.958;2023-03-20T10:24:55;97990.22;;;15.63;67.42
9746;BME280;4912;50.836;12.958;2023-03-20T10:27:33;97992.34;;;15.79;67.33
9746;BME280;4912;50.836;12.958;2023-03-20T10:30:23;97989.59;;;15.90;66.06
9746;BME280;4912;50.836;12.958;2023-03-20T10:33:08;97984.47;;;15.72;67.16
9746;BME280;4912;50.836;12.958;2023-03-20T10:35:49;97983.13;;;15.68;67.37
9746;BME280;4912;50.836;12.958;2023-03-20T10:38:32;97975.06;;;15.75;67.21
9746;BME280;4912;50.836;12.958;2023-03-20T10:41:12;97975.59;;;15.79;66.89
9746;BME280;4912;50.836;12.958;2023-03-20T10:43:47;97981.66;;;15.72;67.37
9746;BME280;4912;50.836;12.958;2023-03-20T10:46:26;97979.13;;;15.74;67.42
9746;BME280;4912;50.836;12.958;2023-03-20T10:49:01;97975.13;;;15.49;67.47
9746;BME280;4912;50.836;12.958;2023-03-20T10:51:39;97970.50;;;15.35;68.52
9746;BME280;4912;50.836;12.958;2023-03-20T10:54:21;97976.53;;;15.02;69.55
9746;BME280;4912;50.836;12.958;2023-03-20T10:56:58;97972.25;;;15.01;70.88
9746;BME280;4912;50.836;12.958;2023-03-20T10:59:34;97973.94;;;14.93;70.61
9746;BME280;4912;50.836;12.958;2023-03-20T11:02:15;97965.22;;;14.80;70.78
9746;BME280;4912;50.836;12.958;2023-03-20T11:04:46;97969.44;;;14.70;72.05
9746;BME280;4912;50.836;12.958;2023-03-20T11:07:22;97972.66;;;14.63;74.27
9746;BME280;4912;50.836;12.958;2023-03-20T11:10:16;97977.06;;;14.75;75.18
9746;BME280;4912;50.836;12.958;2023-03-20T11:12:48;97971.28;;;14.79;74.88
9746;BME280;4912;50.836;12.958;2023-03-20T11:15:22;97966.25;;;14.83;75.25
9746;BME280;4912;50.836;12.958;2023-03-20T11:18:00;97957.84;;;15.08;75.89
9746;BME280;4912;50.836;12.958;2023-03-20T11:20:34;97953.97;;;15.32;77.72
9746;BME280;4912;50.836;12.958;2023-03-20T11:23:14;97960.50;;;15.54;76.99
9746;BME280;4912;50.836;12.958;2023-03-20T11:25:49;97955.03;;;15.71;74.55
9746;BME280;4912;50.836;12.958;2023-03-20T11:28:30;97951.47;;;15.71;70.38
9746;BME280;4912;50.836;12.958;2023-03-20T11:31:04;97948.97;;;15.78;70.13
9746;BME280;4912;50.836;12.958;2023-03-20T11:33:41;97950.03;;;15.92;68.72
9746;BME280;4912;50.836;12.958;2023-03-20T11:36:21;97950.44;;;16.27;67.45
9746;BME280;4912;50.836;12.958;2023-03-20T11:39:00;97943.63;;;16.39;66.14
9746;BME280;4912;50.836;12.958;2023-03-20T11:41:45;97944.38;;;16.40;65.18
9746;BME280;4912;50.836;12.958;2023-03-20T11:44:24;97944.53;;;16.09;65.04
9746;BME280;4912;50.836;12.958;2023-03-20T11:47:00;97946.47;;;15.86;65.48
9746;BME280;4912;50.836;12.958;2023-03-20T11:49:44;97946.06;;;16.10;65.68
9746;BME280;4912;50.836;12.958;2023-03-20T11:52:21;97939.53;;;16.24;65.49
9746;BME280;4912;50.836;12.958;2023-03-20T11:54:56;97934.50;;;16.45;65.18
9746;BME280;4912;50.836;12.958;2023-03-20T11:57:32;97928.38;;;16.41;63.83
9746;BME280;4912;50.836;12.958;2023-03-20T12:00:06;97925.59;;;16.35;63.51
9746;BME280;4912;50.836;12.958;2023-03-20T12:02:47;97931.16;;;16.35;63.75
9746;BME280;4912;50.836;12.958;2023-03-20T12:05:28;97925.00;;;16.09;63.77
9746;BME280;4912;50.836;12.958;2023-03-20T12:08:05;97922.19;;;16.03;64.44
9746;BME280;4912;50.836;12.958;2023-03-20T12:10:43;97918.03;;;15.82;64.38
9746;BME280;4912;50.836;12.958;2023-03-20T12:13:20;97923.81;;;15.73;64.69
9746;BME280;4912;50.836;12.958;2023-03-20T12:15:56;97923.50;;;15.54;65.21
9746;BME280;4912;50.836;12.958;2023-03-20T12:18:32;97917.09;;;15.48;66.53
9746;BME280;4912;50.836;12.958;2023-03-20T12:21:11;97929.53;;;15.15;67.41
9746;BME280;4912;50.836;12.958;2023-03-20T12:23:46;97948.63;;;14.65;75.05
9746;BME280;4912;50.836;12.958;2023-03-20T12:26:23;97960.41;;;13.88;84.94
9746;BME280;4912;50.836;12.958;2023-03-20T12:29:03;97949.75;;;13.32;87.83
9746;BME280;4912;50.836;12.958;2023-03-20T12:31:41;97954.25;;;13.29;91.94
9746;BME280;4912;50.836;12.958;2023-03-20T12:34:19;97950.81;;;13.34;92.54
9746;BME280;4912;50.836;12.958;2023-03-20T12:36:54;97955.63;;;13.54;93.14
9746;BME280;4912;50.836;12.958;2023-03-20T12:39:32;97955.22;;;13.61;90.67
9746;BME280;4912;50.836;12.958;2023-03-20T12:42:12;97946.47;;;13.68;88.65
9746;BME280;4912;50.836;12.958;2023-03-20T12:44:49;97943.63;;;13.83;88.86
9746;BME280;4912;50.836;12.958;2023-03-20T12:47:46;97942.78;;;13.97;90.69
9746;BME280;4912;50.836;12.958;2023-03-20T12:50:30;97950.63;;;13.78;89.30
9746;BME280;4912;50.836;12.958;2023-03-20T12:53:15;97948.44;;;13.82;93.30
9746;BME280;4912;50.836;12.958;2023-03-20T12:56:00;97947.63;;;13.62;89.97
9746;BME280;4912;50.836;12.958;2023-03-20T12:58:40;97945.00;;;13.73;91.10
9746;BME280;4912;50.836;12.958;2023-03-20T13:01:18;97951.34;;;13.38;85.18
9746;BME280;4912;50.836;12.958;2023-03-20T13:06:51;97946.31;;;13.22;82.46
9746;BME280;4912;50.836;12.958;2023-03-20T13:09:38;97943.75;;;13.19;81.89
9746;BME280;4912;50.836;12.958;2023-03-20T13:12:29;97939.16;;;13.01;82.85
9746;BME280;4912;50.836;12.958;2023-03-20T13:15:15;97935.34;;;12.84;85.43
9746;BME280;4912;50.836;12.958;2023-03-20T13:17:56;97933.50;;;12.81;85.87
9746;BME280;4912;50.836;12.958;2023-03-20T13:20:33;97928.59;;;12.90;86.02
9746;BME280;4912;50.836;12.958;2023-03-20T13:23:18;97926.88;;;12.93;85.19
9746;BME280;4912;50.836;12.958;2023-03-20T13:26:16;97918.72;;;13.04;85.60
9746;BME280;4912;50.836;12.958;2023-03-20T13:28:58;97913.38;;;13.15;83.86
9746;BME280;4912;50.836;12.958;2023-03-20T13:31:50;97922.00;;;13.17;85.54
9746;BME280;4912;50.836;12.958;2023-03-20T13:34:33;97919.53;;;13.39;85.06
9746;BME280;4912;50.836;12.958;2023-03-20T13:37:15;97917.97;;;13.53;84.47
9746;BME280;4912;50.836;12.958;2023-03-20T13:40:05;97916.97;;;13.56;84.60
9746;BME280;4912;50.836;12.958;2023-03-20T13:42:48;97914.41;;;13.52;84.49
9746;BME280;4912;50.836;12.958;2023-03-20T13:45:29;97918.31;;;13.61;84.12
9746;BME280;4912;50.836;12.958;2023-03-20T13:48:16;97913.31;;;13.65;83.40
9746;BME280;4912;50.836;12.958;2023-03-20T13:50:56;97913.72;;;13.58;82.28
9746;BME280;4912;50.836;12.958;2023-03-20T13:53:38;97911.22;;;13.60;83.84
9746;BME280;4912;50.836;12.958;2023-03-20T13:56:24;97911.38;;;13.71;84.19
9746;BME280;4912;50.836;12.958;2023-03-20T13:59:15;97914.22;;;13.76;84.88
9746;BME280;4912;50.836;12.958;2023-03-20T14:02:14;97903.66;;;13.80;84.19
9746;BME280;4912;50.836;12.958;2023-03-20T14:04:57;97900.66;;;13.84;83.52
9746;BME280;4912;50.836;12.958;2023-03-20T14:07:32;97907.81;;;13.90;81.32
9746;BME280;4912;50.836;12.958;2023-03-20T14:13:13;97900.03;;;13.74;79.74
9746;BME280;4912;50.836;12.958;2023-03-20T14:15:52;97895.00;;;13.78;80.01
9746;BME280;4912;50.836;12.958;2023-03-20T14:18:24;97892.53;;;13.80;80.14
9746;BME280;4912;50.836;12.958;2023-03-20T14:20:57;97901.50;;;13.70;80.05
9746;BME280;4912;50.836;12.958;2023-03-20T14:23:33;97896.22;;;13.72;81.00
9746;BME280;4912;50.836;12.958;2023-03-20T14:26:08;97896.09;;;13.61;80.51